createdAt,value
2022-12-12T00:01:26.272Z,79.96
2022-12-12T00:03:54.542Z,79.81
2022-12-12T00:06:23.897Z,79.79
2022-12-12T00:08:52.363Z,79.57
2022-12-12T00:11:20.548Z,79.44
2022-12-12T00:13:48.878Z,79.25
2022-12-12T00:16:18.033Z,78.58
2022-12-12T00:18:47.085Z,78.82
2022-12-12T00:21:16.928Z,78.86
2022-12-12T00:23:45.430Z,78.24
2022-12-12T00:26:19.995Z,78.28
2022-12-12T00:28:48.267Z,78.03
2022-12-12T00:31:16.858Z,78.23
2022-12-12T00:33:49.038Z,78.19
2022-12-12T00:36:17.694Z,78.59
2022-12-12T00:38:45.545Z,78.39
2022-12-12T00:41:13.282Z,77.64
2022-12-12T00:43:41.758Z,77.87
2022-12-12T00:46:09.901Z,78.26
2022-12-12T00:48:38.176Z,78.12
2022-12-12T00:51:12.417Z,77.39
2022-12-12T00:53:40.864Z,77.08
2022-12-12T00:56:08.552Z,77.69
2022-12-12T00:58:36.794Z,77.67
2022-12-12T01:01:10.911Z,77.82
2022-12-12T01:03:40.867Z,78.59
2022-12-12T01:06:11.363Z,78.37
2022-12-12T01:08:39.865Z,77.76
2022-12-12T01:11:11.111Z,77.90
2022-12-12T01:13:39.038Z,77.39
2022-12-12T01:16:09.188Z,77.21
2022-12-12T01:18:37.868Z,77.19
2022-12-12T01:21:10.652Z,76.96
2022-12-12T01:23:39.198Z,76.29
2022-12-12T01:26:10.055Z,76.62
2022-12-12T01:28:38.302Z,76.38
2022-12-12T01:31:07.483Z,76.50
2022-12-12T01:33:35.416Z,76.19
2022-12-12T01:36:03.907Z,76.35
2022-12-12T01:38:32.975Z,74.71
2022-12-12T01:41:01.364Z,76.43
2022-12-12T01:43:30.012Z,76.93
2022-12-12T01:46:39.932Z,76.26
2022-12-12T01:49:14.223Z,75.77
2022-12-12T01:51:44.445Z,75.77
2022-12-12T01:54:17.984Z,76.13
2022-12-12T01:56:49.232Z,76.06
2022-12-12T01:59:20.128Z,76.31
2022-12-12T02:01:49.644Z,75.91
2022-12-12T02:04:18.789Z,76.53
2022-12-12T02:06:47.267Z,75.92
2022-12-12T02:09:18.080Z,76.98
2022-12-12T02:11:47.963Z,76.85
2022-12-12T02:14:19.672Z,76.78
2022-12-12T02:17:30.549Z,77.42
2022-12-12T02:20:42.796Z,77.50
2022-12-12T02:23:51.784Z,77.02
2022-12-12T02:26:48.053Z,78.05
2022-12-12T02:29:50.929Z,77.58
2022-12-12T02:32:26.437Z,77.46
2022-12-12T02:35:02.141Z,77.25
2022-12-12T02:37:38.388Z,76.82
2022-12-12T02:40:14.659Z,76.65
2022-12-12T02:42:48.162Z,77.20
2022-12-12T02:45:21.339Z,76.72
2022-12-12T02:47:55.700Z,77.31
2022-12-12T02:50:26.832Z,76.80
2022-12-12T02:52:54.604Z,77.21
2022-12-12T02:55:22.815Z,77.01
2022-12-12T02:57:52.994Z,76.62
2022-12-12T03:00:21.897Z,76.48
2022-12-12T03:03:33.488Z,76.45
2022-12-12T03:06:39.351Z,76.09
2022-12-12T03:09:17.093Z,76.09
2022-12-12T03:12:03.017Z,76.62
2022-12-12T03:14:46.198Z,76.62
2022-12-12T03:17:21.925Z,77.38
2022-12-12T03:20:00.452Z,77.32
2022-12-12T03:22:37.757Z,77.60
2022-12-12T03:25:11.073Z,78.43
2022-12-12T03:27:45.998Z,78.24
2022-12-12T03:30:16.483Z,77.73
2022-12-12T03:32:51.884Z,78.65
2022-12-12T03:35:27.485Z,78.50
2022-12-12T03:38:00.606Z,79.12
2022-12-12T03:40:33.432Z,78.93
2022-12-12T03:43:07.130Z,78.44
2022-12-12T03:45:39.341Z,78.76
2022-12-12T03:48:14.602Z,78.86
2022-12-12T03:50:47.171Z,79.72
2022-12-12T03:53:20.763Z,79.52
2022-12-12T03:55:54.717Z,78.77
2022-12-12T03:58:28.735Z,78.34
2022-12-12T04:00:59.266Z,78.33
2022-12-12T04:03:34.295Z,78.75
2022-12-12T04:06:28.546Z,78.41
2022-12-12T04:09:17.449Z,78.81
2022-12-12T04:12:15.452Z,78.82
2022-12-12T04:15:04.889Z,78.82
2022-12-12T04:17:39.973Z,78.05
2022-12-12T04:20:34.719Z,78.35
2022-12-12T04:23:17.789Z,78.42
2022-12-12T04:26:15.300Z,78.44
2022-12-12T04:28:52.523Z,78.76
2022-12-12T04:31:25.392Z,78.67
2022-12-12T04:34:02.960Z,78.44
2022-12-12T04:36:34.368Z,78.21
2022-12-12T04:39:06.688Z,77.60
2022-12-12T04:41:37.703Z,78.25
2022-12-12T04:44:10.698Z,78.25
2022-12-12T04:46:41.380Z,78.43
2022-12-12T04:49:15.181Z,78.31
2022-12-12T04:51:46.917Z,78.19
2022-12-12T04:54:22.907Z,78.63
2022-12-12T04:56:55.403Z,78.88
2022-12-12T04:59:23.928Z,78.79
2022-12-12T05:01:59.144Z,78.74
2022-12-12T05:04:32.198Z,78.87
2022-12-12T05:07:05.852Z,79.40
2022-12-12T05:09:36.240Z,79.32
2022-12-12T05:12:04.264Z,79.38
2022-12-12T05:14:32.788Z,79.10
2022-12-12T05:17:06.606Z,79.33
2022-12-12T05:19:35.538Z,79.50
2022-12-12T05:22:03.170Z,79.40
2022-12-12T05:24:32.275Z,79.90
2022-12-12T05:27:02.369Z,80.01
2022-12-12T05:29:32.212Z,80.29
2022-12-12T05:31:59.970Z,80.14
2022-12-12T05:34:27.650Z,80.47
2022-12-12T05:36:55.326Z,80.50
2022-12-12T05:39:23.375Z,80.42
2022-12-12T05:41:52.600Z,80.95
2022-12-12T05:44:22.475Z,81.50
2022-12-12T05:46:50.117Z,81.07
2022-12-12T05:49:17.899Z,80.28
2022-12-12T05:51:46.231Z,79.68
2022-12-12T05:54:14.751Z,80.23
2022-12-12T05:56:42.421Z,79.80
2022-12-12T05:59:10.415Z,79.56
2022-12-12T06:01:39.409Z,79.12
2022-12-12T06:04:07.673Z,79.49
2022-12-12T06:06:35.475Z,78.68
2022-12-12T06:09:03.296Z,78.74
2022-12-12T06:11:30.939Z,77.80
2022-12-12T06:13:59.151Z,78.17
2022-12-12T06:16:27.014Z,77.13
2022-12-12T06:18:56.948Z,76.88
2022-12-12T06:21:24.731Z,77.41
2022-12-12T06:23:52.460Z,77.64
2022-12-12T06:26:21.545Z,76.56
2022-12-12T06:28:49.811Z,76.42
2022-12-12T06:31:18.127Z,76.93
2022-12-12T06:33:46.015Z,76.44
2022-12-12T06:36:23.613Z,76.63
2022-12-12T06:38:51.700Z,76.42
2022-12-12T06:41:20.068Z,76.93
2022-12-12T06:43:47.935Z,76.84
2022-12-12T06:46:17.647Z,77.40
2022-12-12T06:48:46.458Z,77.32
2022-12-12T06:51:20.200Z,76.69
2022-12-12T06:53:48.280Z,76.74
2022-12-12T06:56:18.379Z,76.20
2022-12-12T06:58:46.140Z,76.80
2022-12-12T07:01:15.655Z,77.68
2022-12-12T07:03:43.314Z,79.00
2022-12-12T07:06:12.039Z,77.32
2022-12-12T07:08:41.579Z,77.44
2022-12-12T07:11:13.124Z,77.57
2022-12-12T07:13:41.448Z,78.63
2022-12-12T07:16:10.358Z,77.51
2022-12-12T07:18:38.282Z,76.88
2022-12-12T07:21:09.099Z,77.02
2022-12-12T07:23:37.223Z,76.91
2022-12-12T07:26:09.289Z,77.33
2022-12-12T07:28:38.094Z,76.59
2022-12-12T07:31:08.164Z,76.71
2022-12-12T07:33:43.459Z,75.56
2022-12-12T07:36:12.541Z,75.73
2022-12-12T07:38:40.183Z,75.03
2022-12-12T07:41:11.696Z,74.46
2022-12-12T07:43:43.662Z,74.32
2022-12-12T07:46:16.078Z,73.80
2022-12-12T07:48:43.921Z,74.19
2022-12-12T07:51:12.072Z,74.63
2022-12-12T07:53:39.710Z,73.52
2022-12-12T07:56:08.776Z,73.43
2022-12-12T07:58:38.269Z,72.53
2022-12-12T08:01:14.314Z,72.50
2022-12-12T08:03:42.899Z,72.08
2022-12-12T08:06:11.472Z,72.00
2022-12-12T08:08:39.237Z,72.14
2022-12-12T08:11:08.460Z,71.63
2022-12-12T08:13:39.460Z,72.07
2022-12-12T08:16:13.091Z,72.03
2022-12-12T08:18:40.795Z,70.83
2022-12-12T08:21:09.641Z,71.19
2022-12-12T08:23:37.396Z,70.68
2022-12-12T08:26:09.727Z,71.26
2022-12-12T08:28:41.241Z,71.01
2022-12-12T08:31:09.583Z,70.38
2022-12-12T08:33:37.280Z,69.93
2022-12-12T08:36:13.327Z,69.19
2022-12-12T08:38:40.974Z,66.25
2022-12-12T08:41:10.155Z,60.93
2022-12-12T08:43:40.483Z,56.31
2022-12-12T08:46:13.850Z,53.63
2022-12-12T08:48:45.784Z,51.16
2022-12-12T08:51:14.353Z,47.96
2022-12-12T08:53:44.888Z,47.27
2022-12-12T08:56:13.071Z,47.62
2022-12-12T08:58:42.209Z,48.99
2022-12-12T09:01:14.270Z,48.35
2022-12-12T09:03:42.142Z,47.38
2022-12-12T09:06:11.520Z,45.45
2022-12-12T09:08:39.755Z,45.18
2022-12-12T09:11:08.100Z,45.50
2022-12-12T09:13:35.896Z,45.33
2022-12-12T09:16:06.344Z,44.62
2022-12-12T09:18:34.454Z,44.70
2022-12-12T09:21:02.525Z,46.34
2022-12-12T09:23:30.355Z,48.71
2022-12-12T09:25:58.944Z,49.81
2022-12-12T09:28:27.816Z,48.57
2022-12-12T09:30:55.760Z,46.88
2022-12-12T09:33:24.777Z,44.54
2022-12-12T09:35:58.660Z,44.41
2022-12-12T09:38:27.488Z,44.02
2022-12-12T09:41:00.257Z,42.87
2022-12-12T09:43:33.533Z,43.59
2022-12-12T09:46:03.809Z,42.42
2022-12-12T09:48:41.989Z,42.65
2022-12-12T09:51:11.208Z,41.16
2022-12-12T09:53:41.116Z,41.45
2022-12-12T09:56:16.359Z,41.49
2022-12-12T09:58:55.364Z,41.90
2022-12-12T10:01:31.165Z,40.61
2022-12-12T10:04:12.817Z,40.00
2022-12-12T10:06:46.525Z,39.56
2022-12-12T10:09:33.313Z,39.30
2022-12-12T10:12:08.390Z,38.64
2022-12-12T10:14:41.818Z,38.54
2022-12-12T10:17:13.283Z,37.97
2022-12-12T10:19:48.968Z,37.16
2022-12-12T10:22:26.620Z,36.39
2022-12-12T10:24:59.441Z,37.31
2022-12-12T10:27:27.102Z,36.73
2022-12-12T10:29:56.701Z,36.18
2022-12-12T10:32:36.144Z,36.83
2022-12-12T10:35:22.711Z,36.53
2022-12-12T10:38:03.592Z,36.37
2022-12-12T10:40:45.389Z,36.64
2022-12-12T10:43:22.573Z,36.98
2022-12-12T10:46:16.231Z,36.44
2022-12-12T10:48:45.669Z,36.26
2022-12-12T10:51:18.700Z,35.42
2022-12-12T10:53:47.911Z,35.12
2022-12-12T10:56:21.495Z,35.07
2022-12-12T10:58:54.343Z,35.49
2022-12-12T11:01:52.296Z,36.05
2022-12-12T11:04:15.212Z,35.37
2022-12-12T11:06:48.070Z,34.32
2022-12-12T11:09:20.303Z,35.67
2022-12-12T11:11:59.122Z,36.59
2022-12-12T11:14:32.624Z,37.13
2022-12-12T11:17:00.359Z,36.92
2022-12-12T11:19:29.201Z,37.17
2022-12-12T11:22:05.288Z,37.31
2022-12-12T11:24:36.164Z,37.36
2022-12-12T11:27:06.261Z,36.88
2022-12-12T11:29:42.913Z,36.90
2022-12-12T11:32:14.240Z,34.93
2022-12-12T11:34:47.379Z,34.44
2022-12-12T11:37:18.233Z,35.13
2022-12-12T11:39:47.856Z,34.36
2022-12-12T11:42:21.910Z,34.54
2022-12-12T11:45:00.026Z,35.09
2022-12-12T11:47:29.916Z,34.72
2022-12-12T11:49:59.822Z,36.19
2022-12-12T11:52:32.224Z,36.40
2022-12-12T11:55:01.600Z,38.32
2022-12-12T11:57:49.536Z,39.45
2022-12-12T12:00:20.808Z,38.95
2022-12-12T12:06:10.104Z,38.72
2022-12-12T12:08:59.138Z,38.55
2022-12-12T12:11:33.260Z,38.21
2022-12-12T12:14:13.788Z,37.55
2022-12-12T12:16:53.090Z,37.50
2022-12-12T12:19:28.715Z,37.00
2022-12-12T12:22:03.462Z,36.70
2022-12-12T12:24:56.781Z,35.83
2022-12-12T12:27:34.046Z,36.80
2022-12-12T12:30:14.724Z,37.68
2022-12-12T12:32:58.884Z,40.63
2022-12-12T12:35:30.924Z,42.26
2022-12-12T12:38:14.486Z,42.83
2022-12-12T12:41:09.662Z,44.29
2022-12-12T12:43:52.448Z,44.64
2022-12-12T12:46:32.149Z,45.92
2022-12-12T12:49:04.609Z,46.49
2022-12-12T12:51:36.759Z,47.97
2022-12-12T12:54:07.471Z,49.36
2022-12-12T12:56:43.995Z,48.93
2022-12-12T12:59:18.091Z,49.38
2022-12-12T13:01:49.377Z,49.91
2022-12-12T13:04:25.574Z,49.96
2022-12-12T13:06:57.515Z,51.34
2022-12-12T13:09:33.498Z,52.00
2022-12-12T13:12:10.165Z,52.20
2022-12-12T13:14:47.487Z,51.36
2022-12-12T13:17:19.962Z,51.67
2022-12-12T13:19:53.753Z,52.51
2022-12-12T13:22:31.577Z,53.76
2022-12-12T13:25:07.237Z,53.92
2022-12-12T13:27:45.616Z,54.77
2022-12-12T13:30:23.416Z,54.66
2022-12-12T13:33:06.436Z,54.79
2022-12-12T13:35:40.105Z,55.28
2022-12-12T13:38:19.088Z,54.40
2022-12-12T13:40:57.459Z,54.45
2022-12-12T13:43:40.307Z,53.85
2022-12-12T13:46:42.408Z,54.03
2022-12-12T13:49:31.246Z,54.76
2022-12-12T13:52:23.898Z,54.59
2022-12-12T13:54:53.937Z,55.03
2022-12-12T13:57:32.141Z,54.90
2022-12-12T14:00:21.418Z,54.73
2022-12-12T14:03:03.112Z,55.27
2022-12-12T14:05:35.520Z,54.04
2022-12-12T14:08:08.975Z,54.64
2022-12-12T14:10:40.444Z,54.09
2022-12-12T14:13:18.592Z,54.77
2022-12-12T14:15:51.380Z,54.87
2022-12-12T14:18:25.871Z,54.21
2022-12-12T14:21:03.054Z,54.66
2022-12-12T14:23:32.636Z,54.24
2022-12-12T14:26:01.504Z,53.56
2022-12-12T14:28:31.104Z,53.41
2022-12-12T14:31:09.123Z,54.44
2022-12-12T14:34:06.206Z,55.00
2022-12-12T14:36:52.285Z,54.07
2022-12-12T14:39:34.857Z,53.97
2022-12-12T14:42:07.005Z,55.23
2022-12-12T14:44:37.421Z,55.57
2022-12-12T14:47:09.686Z,56.48
2022-12-12T14:49:37.450Z,56.63
2022-12-12T14:52:05.680Z,56.71
2022-12-12T14:54:33.432Z,56.86
2022-12-12T14:57:01.942Z,56.86
2022-12-12T14:59:33.469Z,56.65
2022-12-12T15:02:07.070Z,56.19
2022-12-12T15:04:39.619Z,56.66
2022-12-12T15:07:22.660Z,57.64
2022-12-12T15:09:50.592Z,57.36
2022-12-12T15:12:21.046Z,58.32
2022-12-12T15:14:55.102Z,59.11
2022-12-12T15:17:27.288Z,58.87
2022-12-12T15:19:59.456Z,58.81
2022-12-12T15:22:29.835Z,58.55
2022-12-12T15:24:59.470Z,59.38
2022-12-12T15:27:32.164Z,60.12
2022-12-12T15:30:01.509Z,61.17
2022-12-12T15:32:30.709Z,61.80
2022-12-12T15:35:05.891Z,62.37
2022-12-12T15:37:35.145Z,62.48
2022-12-12T15:40:22.594Z,62.84
2022-12-12T15:42:55.567Z,62.35
2022-12-12T15:45:26.678Z,63.01
2022-12-12T15:47:56.869Z,63.04
2022-12-12T15:50:28.584Z,63.29
2022-12-12T15:53:03.195Z,63.30
2022-12-12T15:55:31.032Z,63.44
2022-12-12T15:57:59.155Z,63.84
2022-12-12T16:00:35.184Z,63.83
2022-12-12T16:03:06.461Z,63.65
2022-12-12T16:05:37.743Z,63.87
2022-12-12T16:08:32.053Z,64.61
2022-12-12T16:11:02.383Z,64.77
2022-12-12T16:13:37.795Z,65.19
2022-12-12T16:16:36.020Z,65.29
2022-12-12T16:19:05.276Z,65.90
2022-12-12T16:21:36.658Z,65.96
2022-12-12T16:24:13.275Z,65.83
2022-12-12T16:26:40.915Z,65.76
2022-12-12T16:29:08.564Z,66.11
2022-12-12T16:34:22.535Z,67.48
2022-12-12T16:36:51.896Z,68.50
2022-12-12T16:39:19.637Z,69.32
2022-12-12T16:41:48.129Z,69.55
2022-12-12T16:44:15.763Z,69.80
2022-12-12T16:46:43.404Z,70.47
2022-12-12T16:49:15.257Z,70.80
2022-12-12T16:51:43.691Z,70.97
2022-12-12T16:54:17.716Z,71.15
2022-12-12T16:56:52.559Z,71.03
2022-12-12T16:59:20.260Z,70.80
2022-12-12T17:01:48.961Z,71.65
2022-12-12T17:04:22.215Z,71.83
2022-12-12T17:06:51.096Z,71.68
2022-12-12T17:09:21.505Z,72.03
2022-12-12T17:11:51.660Z,71.99
2022-12-12T17:14:22.649Z,72.62
2022-12-12T17:16:51.393Z,72.13
2022-12-12T17:19:20.621Z,72.51
2022-12-12T17:21:48.988Z,72.00
2022-12-12T17:24:16.796Z,71.99
2022-12-12T17:26:46.119Z,72.62
2022-12-12T17:29:14.187Z,71.95
2022-12-12T17:31:41.893Z,72.08
2022-12-12T17:34:11.470Z,73.03
2022-12-12T17:36:39.347Z,72.21
2022-12-12T17:39:07.774Z,73.20
2022-12-12T17:41:35.703Z,72.65
2022-12-12T17:44:05.506Z,72.19
2022-12-12T17:46:33.193Z,72.02
2022-12-12T17:49:02.004Z,72.19
2022-12-12T17:51:30.083Z,71.91
2022-12-12T17:54:00.251Z,72.02
2022-12-12T17:56:28.377Z,71.79
2022-12-12T17:58:56.971Z,71.64
2022-12-12T18:01:28.313Z,71.55
2022-12-12T18:03:57.549Z,72.31
2022-12-12T18:06:27.029Z,71.79
2022-12-12T18:08:55.858Z,71.96
2022-12-12T18:11:26.857Z,72.11
2022-12-12T18:13:57.964Z,72.63
2022-12-12T18:16:29.179Z,72.92
2022-12-12T18:18:57.851Z,72.95
2022-12-12T18:21:59.085Z,73.40
2022-12-12T18:24:17.616Z,73.65
2022-12-12T18:26:45.468Z,74.12
2022-12-12T18:29:14.529Z,73.70
2022-12-12T18:31:43.606Z,73.97
2022-12-12T18:34:11.649Z,74.59
2022-12-12T18:36:39.941Z,73.34
2022-12-12T18:39:08.662Z,73.16
2022-12-12T18:41:37.505Z,73.41
2022-12-12T18:44:07.188Z,74.07
2022-12-12T18:46:40.543Z,74.54
2022-12-12T18:49:15.271Z,74.50
2022-12-12T18:51:44.275Z,74.74
2022-12-12T18:54:15.541Z,75.79
2022-12-12T18:56:45.078Z,74.86
2022-12-12T18:59:13.345Z,75.52
2022-12-12T19:01:41.122Z,76.13
2022-12-12T19:04:13.113Z,76.05
2022-12-12T19:06:44.465Z,76.26
2022-12-12T19:09:15.603Z,76.67
2022-12-12T19:11:44.236Z,77.08
2022-12-12T19:14:15.226Z,75.75
2022-12-12T19:16:43.768Z,76.08
2022-12-12T19:19:12.197Z,76.45
2022-12-12T19:21:42.039Z,76.45
2022-12-12T19:24:12.671Z,77.20
2022-12-12T19:26:43.714Z,77.56
2022-12-12T19:29:13.900Z,76.58
2022-12-12T19:31:42.515Z,76.63
2022-12-12T19:34:12.810Z,76.19
2022-12-12T19:36:41.465Z,76.87
2022-12-12T19:39:13.968Z,76.54
2022-12-12T19:41:42.427Z,76.85
2022-12-12T19:44:12.858Z,76.92
2022-12-12T19:46:43.078Z,76.08
2022-12-12T19:49:12.722Z,76.42
2022-12-12T19:51:43.159Z,76.22
2022-12-12T19:54:14.649Z,76.13
2022-12-12T19:56:42.415Z,75.93
2022-12-12T19:59:13.017Z,76.21
2022-12-12T20:01:41.418Z,76.08
2022-12-12T20:04:14.519Z,75.38
2022-12-12T20:06:45.698Z,75.86
2022-12-12T20:09:17.026Z,75.29
2022-12-12T20:11:45.813Z,75.71
2022-12-12T20:14:15.312Z,75.36
2022-12-12T20:16:43.463Z,75.54
2022-12-12T20:19:11.852Z,75.43
2022-12-12T20:24:34.496Z,75.51
2022-12-12T20:27:04.390Z,74.53
2022-12-12T20:29:32.332Z,75.43
2022-12-12T20:32:01.586Z,74.87
2022-12-12T20:34:29.676Z,74.35
2022-12-12T20:36:58.967Z,74.82
2022-12-12T20:39:26.763Z,74.88
2022-12-12T20:41:56.934Z,75.11
2022-12-12T20:44:25.759Z,74.97
2022-12-12T20:46:53.722Z,75.18
2022-12-12T20:49:23.876Z,73.50
2022-12-12T20:51:56.969Z,73.18
2022-12-12T20:54:25.988Z,73.84
2022-12-12T20:56:54.260Z,74.27
2022-12-12T20:59:23.848Z,73.89
2022-12-12T21:01:52.409Z,73.61
2022-12-12T21:04:20.186Z,74.23
2022-12-12T21:06:49.605Z,74.40
2022-12-12T21:09:23.675Z,74.97
2022-12-12T21:11:53.058Z,76.04
2022-12-12T21:14:20.787Z,76.33
2022-12-12T21:16:49.795Z,76.69
2022-12-12T21:19:18.750Z,77.34
2022-12-12T21:21:46.923Z,77.04
2022-12-12T21:24:17.842Z,77.73
2022-12-12T21:26:46.059Z,77.66
2022-12-12T21:29:13.879Z,77.63
2022-12-12T21:31:49.950Z,77.71
2022-12-12T21:34:21.003Z,77.96
2022-12-12T21:36:51.481Z,77.95
2022-12-12T21:39:19.227Z,77.60
2022-12-12T21:41:47.026Z,77.58
2022-12-12T21:44:14.673Z,77.97
2022-12-12T21:46:44.019Z,77.63
2022-12-12T21:49:26.298Z,77.83
2022-12-12T21:51:57.472Z,77.72
2022-12-12T21:54:26.013Z,77.79
2022-12-12T21:56:54.432Z,77.35
2022-12-12T21:59:22.419Z,77.36
2022-12-12T22:01:50.139Z,77.25
2022-12-12T22:04:17.802Z,77.38
2022-12-12T22:06:46.708Z,76.80
2022-12-12T22:09:15.727Z,77.02
2022-12-12T22:11:49.842Z,76.26
2022-12-12T22:14:20.876Z,76.84
2022-12-12T22:16:48.880Z,76.32
2022-12-12T22:19:17.172Z,76.28
2022-12-12T22:21:46.442Z,76.25
2022-12-12T22:24:15.740Z,76.74
2022-12-12T22:26:45.076Z,76.42
2022-12-12T22:29:15.850Z,76.50
2022-12-12T22:31:44.768Z,76.50
2022-12-12T22:34:14.612Z,76.60
2022-12-12T22:36:43.107Z,76.22
2022-12-12T22:39:16.499Z,76.15
2022-12-12T22:41:44.623Z,76.55
2022-12-12T22:44:15.799Z,76.19
2022-12-12T22:46:44.651Z,76.04
2022-12-12T22:49:14.236Z,76.08
2022-12-12T22:51:42.313Z,75.83
2022-12-12T22:54:10.236Z,76.10
2022-12-12T22:56:40.433Z,76.22
2022-12-12T22:59:09.817Z,76.68
2022-12-12T23:01:37.476Z,76.28
2022-12-12T23:04:06.207Z,76.28
2022-12-12T23:06:36.610Z,76.46
2022-12-12T23:09:08.264Z,76.18
2022-12-12T23:11:36.841Z,76.37
2022-12-12T23:14:08.512Z,76.32
2022-12-12T23:16:37.451Z,76.04
2022-12-12T23:19:07.803Z,76.56
2022-12-12T23:21:37.529Z,76.00
2022-12-12T23:24:07.477Z,76.10
2022-12-12T23:26:37.369Z,76.21
2022-12-12T23:29:09.458Z,76.70
2022-12-12T23:31:39.159Z,76.53
2022-12-12T23:34:13.903Z,76.67
2022-12-12T23:36:42.193Z,77.08
2022-12-12T23:39:12.475Z,77.36
2022-12-12T23:41:40.865Z,77.30
2022-12-12T23:44:13.337Z,77.19
2022-12-12T23:46:41.556Z,77.16
2022-12-12T23:49:14.539Z,77.64
2022-12-12T23:51:43.985Z,77.37
2022-12-12T23:54:14.851Z,77.11
2022-12-12T23:56:43.187Z,76.95
2022-12-12T23:59:17.531Z,77.33
